sensor_id;sensor_type;location;lat;lon;timestamp;P1;durP1;ratioP1;P2;durP2;ratioP2
21833;SDS011;11079;51.092;3.458;2022-11-20T00:01:09;6.78;;;5.97;;
21833;SDS011;11079;51.092;3.458;2022-11-20T00:03:36;8.82;;;6.65;;
21833;SDS011;11079;51.092;3.458;2022-11-20T00:06:03;8.88;;;7.10;;
21833;SDS011;11079;51.092;3.458;2022-11-20T00:08:30;7.65;;;6.25;;
21833;SDS011;11079;51.092;3.458;2022-11-20T00:10:56;7.55;;;6.15;;
21833;SDS011;11079;51.092;3.458;2022-11-20T00:13:22;9.40;;;7.03;;
21833;SDS011;11079;51.092;3.458;2022-11-20T00:15:48;7.20;;;6.30;;
21833;SDS011;11079;51.092;3.458;2022-11-20T00:18:13;8.38;;;6.22;;
21833;SDS011;11079;51.092;3.458;2022-11-20T00:20:39;7.32;;;6.20;;
21833;SDS011;11079;51.092;3.458;2022-11-20T00:23:04;7.93;;;6.03;;
21833;SDS011;11079;51.092;3.458;2022-11-20T00:25:33;8.27;;;6.28;;
21833;SDS011;11079;51.092;3.458;2022-11-20T00:27:59;7.45;;;6.18;;
21833;SDS011;11079;51.092;3.458;2022-11-20T00:30:25;7.38;;;5.65;;
21833;SDS011;11079;51.092;3.458;2022-11-20T00:32:50;7.15;;;6.03;;
21833;SDS011;11079;51.092;3.458;2022-11-20T00:35:16;7.75;;;6.03;;
21833;SDS011;11079;51.092;3.458;2022-11-20T00:37:42;9.20;;;6.40;;
21833;SDS011;11079;51.092;3.458;2022-11-20T00:40:07;9.40;;;6.50;;
21833;SDS011;11079;51.092;3.458;2022-11-20T00:42:33;7.85;;;5.88;;
21833;SDS011;11079;51.092;3.458;2022-11-20T00:44:59;7.60;;;6.13;;
21833;SDS011;11079;51.092;3.458;2022-11-20T00:47:24;8.25;;;5.88;;
21833;SDS011;11079;51.092;3.458;2022-11-20T00:49:50;7.22;;;6.03;;
21833;SDS011;11079;51.092;3.458;2022-11-20T00:52:15;7.15;;;5.88;;
21833;SDS011;11079;51.092;3.458;2022-11-20T00:54:41;6.50;;;5.47;;
21833;SDS011;11079;51.092;3.458;2022-11-20T00:57:07;7.65;;;6.25;;
21833;SDS011;11079;51.092;3.458;2022-11-20T00:59:32;7.90;;;6.30;;
21833;SDS011;11079;51.092;3.458;2022-11-20T01:01:58;6.88;;;5.78;;
21833;SDS011;11079;51.092;3.458;2022-11-20T01:04:23;6.43;;;5.50;;
21833;SDS011;11079;51.092;3.458;2022-11-20T01:06:49;8.02;;;6.22;;
21833;SDS011;11079;51.092;3.458;2022-11-20T01:09:14;6.57;;;5.47;;
21833;SDS011;11079;51.092;3.458;2022-11-20T01:11:41;6.90;;;5.63;;
21833;SDS011;11079;51.092;3.458;2022-11-20T01:14:12;7.70;;;6.25;;
21833;SDS011;11079;51.092;3.458;2022-11-20T01:16:40;7.78;;;6.15;;
21833;SDS011;11079;51.092;3.458;2022-11-20T01:19:12;7.28;;;5.93;;
21833;SDS011;11079;51.092;3.458;2022-11-20T01:21:41;7.15;;;5.68;;
21833;SDS011;11079;51.092;3.458;2022-11-20T01:24:09;6.85;;;5.75;;
21833;SDS011;11079;51.092;3.458;2022-11-20T01:26:38;6.85;;;5.68;;
21833;SDS011;11079;51.092;3.458;2022-11-20T01:29:05;6.78;;;6.07;;
21833;SDS011;11079;51.092;3.458;2022-11-20T01:31:32;8.05;;;5.75;;
21833;SDS011;11079;51.092;3.458;2022-11-20T01:34:00;7.65;;;5.55;;
21833;SDS011;11079;51.092;3.458;2022-11-20T01:36:31;6.85;;;5.57;;
21833;SDS011;11079;51.092;3.458;2022-11-20T01:38:59;6.22;;;5.10;;
21833;SDS011;11079;51.092;3.458;2022-11-20T01:41:26;7.35;;;5.72;;
21833;SDS011;11079;51.092;3.458;2022-11-20T01:44:12;6.63;;;5.60;;
21833;SDS011;11079;51.092;3.458;2022-11-20T01:46:42;6.88;;;5.38;;
21833;SDS011;11079;51.092;3.458;2022-11-20T01:49:24;5.68;;;5.07;;
21833;SDS011;11079;51.092;3.458;2022-11-20T01:52:07;6.78;;;5.25;;
21833;SDS011;11079;51.092;3.458;2022-11-20T01:54:42;6.95;;;5.93;;
21833;SDS011;11079;51.092;3.458;2022-11-20T01:57:13;6.47;;;5.15;;
21833;SDS011;11079;51.092;3.458;2022-11-20T01:59:43;6.68;;;5.50;;
21833;SDS011;11079;51.092;3.458;2022-11-20T02:02:13;6.82;;;5.50;;
21833;SDS011;11079;51.092;3.458;2022-11-20T02:04:39;8.02;;;5.85;;
21833;SDS011;11079;51.092;3.458;2022-11-20T02:07:05;6.93;;;5.68;;
21833;SDS011;11079;51.092;3.458;2022-11-20T02:09:31;5.50;;;4.40;;
21833;SDS011;11079;51.092;3.458;2022-11-20T02:11:57;6.13;;;4.68;;
21833;SDS011;11079;51.092;3.458;2022-11-20T02:14:23;6.30;;;5.32;;
21833;SDS011;11079;51.092;3.458;2022-11-20T02:16:50;5.85;;;4.85;;
21833;SDS011;11079;51.092;3.458;2022-11-20T02:19:22;5.60;;;4.78;;
21833;SDS011;11079;51.092;3.458;2022-11-20T02:24:31;6.03;;;4.95;;
21833;SDS011;11079;51.092;3.458;2022-11-20T02:26:58;6.03;;;5.32;;
21833;SDS011;11079;51.092;3.458;2022-11-20T02:29:30;5.78;;;4.82;;
21833;SDS011;11079;51.092;3.458;2022-11-20T02:32:17;7.13;;;5.32;;
21833;SDS011;11079;51.092;3.458;2022-11-20T02:34:53;6.50;;;5.68;;
21833;SDS011;11079;51.092;3.458;2022-11-20T02:37:19;5.85;;;4.95;;
21833;SDS011;11079;51.092;3.458;2022-11-20T02:39:49;6.63;;;4.63;;
21833;SDS011;11079;51.092;3.458;2022-11-20T02:42:17;7.30;;;5.13;;
21833;SDS011;11079;51.092;3.458;2022-11-20T02:44:42;6.13;;;4.93;;
21833;SDS011;11079;51.092;3.458;2022-11-20T02:47:08;6.68;;;4.97;;
21833;SDS011;11079;51.092;3.458;2022-11-20T02:49:34;6.30;;;5.43;;
21833;SDS011;11079;51.092;3.458;2022-11-20T02:52:00;6.70;;;5.05;;
21833;SDS011;11079;51.092;3.458;2022-11-20T02:54:25;6.25;;;4.53;;
21833;SDS011;11079;51.092;3.458;2022-11-20T02:56:51;5.38;;;4.65;;
21833;SDS011;11079;51.092;3.458;2022-11-20T02:59:17;6.53;;;4.90;;
21833;SDS011;11079;51.092;3.458;2022-11-20T03:01:42;6.00;;;5.32;;
21833;SDS011;11079;51.092;3.458;2022-11-20T03:04:08;5.78;;;4.68;;
21833;SDS011;11079;51.092;3.458;2022-11-20T03:06:34;6.55;;;5.30;;
21833;SDS011;11079;51.092;3.458;2022-11-20T03:08:59;6.25;;;5.28;;
21833;SDS011;11079;51.092;3.458;2022-11-20T03:11:25;5.88;;;4.80;;
21833;SDS011;11079;51.092;3.458;2022-11-20T03:13:51;5.55;;;4.82;;
21833;SDS011;11079;51.092;3.458;2022-11-20T03:16:17;5.20;;;4.57;;
21833;SDS011;11079;51.092;3.458;2022-11-20T03:18:46;6.35;;;5.00;;
21833;SDS011;11079;51.092;3.458;2022-11-20T03:21:12;5.07;;;4.53;;
21833;SDS011;11079;51.092;3.458;2022-11-20T03:23:39;6.15;;;4.90;;
21833;SDS011;11079;51.092;3.458;2022-11-20T03:26:12;5.45;;;4.60;;
21833;SDS011;11079;51.092;3.458;2022-11-20T03:28:40;5.82;;;4.65;;
21833;SDS011;11079;51.092;3.458;2022-11-20T03:31:08;5.53;;;4.88;;
21833;SDS011;11079;51.092;3.458;2022-11-20T03:33:35;7.15;;;5.20;;
21833;SDS011;11079;51.092;3.458;2022-11-20T03:36:02;6.05;;;4.75;;
21833;SDS011;11079;51.092;3.458;2022-11-20T03:38:29;5.80;;;4.90;;
21833;SDS011;11079;51.092;3.458;2022-11-20T03:41:00;6.60;;;5.22;;
21833;SDS011;11079;51.092;3.458;2022-11-20T03:43:30;5.45;;;4.65;;
21833;SDS011;11079;51.092;3.458;2022-11-20T03:45:56;6.78;;;4.80;;
21833;SDS011;11079;51.092;3.458;2022-11-20T03:48:22;6.47;;;4.80;;
21833;SDS011;11079;51.092;3.458;2022-11-20T03:50:47;5.15;;;4.65;;
21833;SDS011;11079;51.092;3.458;2022-11-20T03:53:13;6.18;;;4.93;;
21833;SDS011;11079;51.092;3.458;2022-11-20T03:55:39;5.15;;;4.25;;
21833;SDS011;11079;51.092;3.458;2022-11-20T03:58:05;5.43;;;4.60;;
21833;SDS011;11079;51.092;3.458;2022-11-20T04:00:31;5.70;;;4.70;;
21833;SDS011;11079;51.092;3.458;2022-11-20T04:03:03;6.18;;;4.63;;
21833;SDS011;11079;51.092;3.458;2022-11-20T04:05:28;6.28;;;5.18;;
21833;SDS011;11079;51.092;3.458;2022-11-20T04:07:54;4.80;;;3.90;;
21833;SDS011;11079;51.092;3.458;2022-11-20T04:10:20;5.38;;;4.35;;
21833;SDS011;11079;51.092;3.458;2022-11-20T04:12:45;6.13;;;4.68;;
21833;SDS011;11079;51.092;3.458;2022-11-20T04:15:11;5.82;;;4.55;;
21833;SDS011;11079;51.092;3.458;2022-11-20T04:17:37;5.43;;;4.40;;
21833;SDS011;11079;51.092;3.458;2022-11-20T04:20:02;5.22;;;4.32;;
21833;SDS011;11079;51.092;3.458;2022-11-20T04:22:28;7.22;;;5.03;;
21833;SDS011;11079;51.092;3.458;2022-11-20T04:24:54;5.50;;;4.25;;
21833;SDS011;11079;51.092;3.458;2022-11-20T04:27:20;6.30;;;4.60;;
21833;SDS011;11079;51.092;3.458;2022-11-20T04:29:45;4.90;;;4.38;;
21833;SDS011;11079;51.092;3.458;2022-11-20T04:32:11;6.07;;;4.40;;
21833;SDS011;11079;51.092;3.458;2022-11-20T04:34:36;6.30;;;5.00;;
21833;SDS011;11079;51.092;3.458;2022-11-20T04:37:02;5.70;;;4.63;;
21833;SDS011;11079;51.092;3.458;2022-11-20T04:39:27;6.13;;;4.75;;
21833;SDS011;11079;51.092;3.458;2022-11-20T04:41:53;5.57;;;4.68;;
21833;SDS011;11079;51.092;3.458;2022-11-20T04:44:38;6.03;;;4.65;;
21833;SDS011;11079;51.092;3.458;2022-11-20T04:47:04;5.82;;;5.00;;
21833;SDS011;11079;51.092;3.458;2022-11-20T04:49:30;5.43;;;4.50;;
21833;SDS011;11079;51.092;3.458;2022-11-20T04:51:56;5.90;;;4.38;;
21833;SDS011;11079;51.092;3.458;2022-11-20T04:54:22;6.38;;;4.45;;
21833;SDS011;11079;51.092;3.458;2022-11-20T04:56:48;6.68;;;4.82;;
21833;SDS011;11079;51.092;3.458;2022-11-20T04:59:14;4.20;;;3.80;;
21833;SDS011;11079;51.092;3.458;2022-11-20T05:01:39;5.40;;;4.18;;
21833;SDS011;11079;51.092;3.458;2022-11-20T05:04:05;6.82;;;5.15;;
21833;SDS011;11079;51.092;3.458;2022-11-20T05:06:32;5.40;;;4.45;;
21833;SDS011;11079;51.092;3.458;2022-11-20T05:08:58;5.30;;;4.05;;
21833;SDS011;11079;51.092;3.458;2022-11-20T05:11:23;4.85;;;4.35;;
21833;SDS011;11079;51.092;3.458;2022-11-20T05:13:50;5.53;;;4.75;;
21833;SDS011;11079;51.092;3.458;2022-11-20T05:16:25;5.18;;;4.35;;
21833;SDS011;11079;51.092;3.458;2022-11-20T05:18:51;4.97;;;4.03;;
21833;SDS011;11079;51.092;3.458;2022-11-20T05:21:19;5.40;;;4.05;;
21833;SDS011;11079;51.092;3.458;2022-11-20T05:23:45;6.43;;;4.70;;
21833;SDS011;11079;51.092;3.458;2022-11-20T05:26:18;5.07;;;4.20;;
21833;SDS011;11079;51.092;3.458;2022-11-20T05:28:46;5.63;;;4.00;;
21833;SDS011;11079;51.092;3.458;2022-11-20T05:31:14;6.18;;;4.82;;
21833;SDS011;11079;51.092;3.458;2022-11-20T05:33:44;5.55;;;4.45;;
21833;SDS011;11079;51.092;3.458;2022-11-20T05:36:11;6.50;;;4.85;;
21833;SDS011;11079;51.092;3.458;2022-11-20T05:38:38;5.90;;;4.45;;
21833;SDS011;11079;51.092;3.458;2022-11-20T05:43:38;5.20;;;3.92;;
21833;SDS011;11079;51.092;3.458;2022-11-20T05:46:05;5.05;;;4.00;;
21833;SDS011;11079;51.092;3.458;2022-11-20T05:48:32;5.88;;;4.80;;
21833;SDS011;11079;51.092;3.458;2022-11-20T05:50:59;6.47;;;4.30;;
21833;SDS011;11079;51.092;3.458;2022-11-20T05:53:26;4.72;;;3.92;;
21833;SDS011;11079;51.092;3.458;2022-11-20T05:56:02;6.00;;;4.30;;
21833;SDS011;11079;51.092;3.458;2022-11-20T05:58:30;4.82;;;4.25;;
21833;SDS011;11079;51.092;3.458;2022-11-20T06:01:06;4.70;;;3.90;;
21833;SDS011;11079;51.092;3.458;2022-11-20T06:03:32;5.65;;;4.07;;
21833;SDS011;11079;51.092;3.458;2022-11-20T06:05:59;4.95;;;4.22;;
21833;SDS011;11079;51.092;3.458;2022-11-20T06:08:25;5.88;;;4.32;;
21833;SDS011;11079;51.092;3.458;2022-11-20T06:10:50;5.50;;;4.38;;
21833;SDS011;11079;51.092;3.458;2022-11-20T06:13:16;6.00;;;4.80;;
21833;SDS011;11079;51.092;3.458;2022-11-20T06:15:41;5.60;;;4.22;;
21833;SDS011;11079;51.092;3.458;2022-11-20T06:18:07;4.57;;;3.95;;
21833;SDS011;11079;51.092;3.458;2022-11-20T06:20:32;4.65;;;4.10;;
21833;SDS011;11079;51.092;3.458;2022-11-20T06:22:58;4.75;;;3.83;;
21833;SDS011;11079;51.092;3.458;2022-11-20T06:25:23;5.35;;;4.28;;
21833;SDS011;11079;51.092;3.458;2022-11-20T06:27:49;6.05;;;4.90;;
21833;SDS011;11079;51.092;3.458;2022-11-20T06:30:15;5.03;;;4.10;;
21833;SDS011;11079;51.092;3.458;2022-11-20T06:32:40;5.53;;;4.15;;
21833;SDS011;11079;51.092;3.458;2022-11-20T06:35:06;5.32;;;4.47;;
21833;SDS011;11079;51.092;3.458;2022-11-20T06:37:32;4.75;;;3.88;;
21833;SDS011;11079;51.092;3.458;2022-11-20T06:39:57;6.32;;;4.43;;
21833;SDS011;11079;51.092;3.458;2022-11-20T06:42:23;4.78;;;3.78;;
21833;SDS011;11079;51.092;3.458;2022-11-20T06:44:49;5.28;;;4.05;;
21833;SDS011;11079;51.092;3.458;2022-11-20T06:47:14;5.72;;;3.97;;
21833;SDS011;11079;51.092;3.458;2022-11-20T06:49:40;5.00;;;3.97;;
21833;SDS011;11079;51.092;3.458;2022-11-20T06:52:06;5.78;;;4.47;;
21833;SDS011;11079;51.092;3.458;2022-11-20T06:54:31;6.00;;;4.03;;
21833;SDS011;11079;51.092;3.458;2022-11-20T06:56:57;5.32;;;4.35;;
21833;SDS011;11079;51.092;3.458;2022-11-20T06:59:22;5.10;;;3.97;;
21833;SDS011;11079;51.092;3.458;2022-11-20T07:01:48;5.50;;;4.45;;
21833;SDS011;11079;51.092;3.458;2022-11-20T07:04:13;4.82;;;3.55;;
21833;SDS011;11079;51.092;3.458;2022-11-20T07:06:39;5.03;;;3.90;;
21833;SDS011;11079;51.092;3.458;2022-11-20T07:09:05;5.47;;;4.18;;
21833;SDS011;11079;51.092;3.458;2022-11-20T07:11:30;5.63;;;4.20;;
21833;SDS011;11079;51.092;3.458;2022-11-20T07:13:56;5.00;;;4.00;;
21833;SDS011;11079;51.092;3.458;2022-11-20T07:16:22;4.43;;;3.67;;
21833;SDS011;11079;51.092;3.458;2022-11-20T07:18:47;5.38;;;4.05;;
21833;SDS011;11079;51.092;3.458;2022-11-20T07:21:13;6.13;;;4.18;;
21833;SDS011;11079;51.092;3.458;2022-11-20T07:23:39;5.70;;;3.97;;
21833;SDS011;11079;51.092;3.458;2022-11-20T07:26:05;4.40;;;3.63;;
21833;SDS011;11079;51.092;3.458;2022-11-20T07:28:32;5.50;;;3.92;;
21833;SDS011;11079;51.092;3.458;2022-11-20T07:30:58;4.18;;;3.53;;
21833;SDS011;11079;51.092;3.458;2022-11-20T07:33:24;13.73;;;8.98;;
21833;SDS011;11079;51.092;3.458;2022-11-20T07:35:50;14.77;;;8.90;;
21833;SDS011;11079;51.092;3.458;2022-11-20T07:38:15;20.70;;;11.38;;
21833;SDS011;11079;51.092;3.458;2022-11-20T07:40:41;22.85;;;13.73;;
21833;SDS011;11079;51.092;3.458;2022-11-20T07:43:06;22.50;;;12.82;;
21833;SDS011;11079;51.092;3.458;2022-11-20T07:45:32;26.95;;;13.52;;
21833;SDS011;11079;51.092;3.458;2022-11-20T07:47:58;26.17;;;15.45;;
21833;SDS011;11079;51.092;3.458;2022-11-20T07:50:23;27.05;;;15.68;;
21833;SDS011;11079;51.092;3.458;2022-11-20T07:52:49;28.83;;;15.55;;
21833;SDS011;11079;51.092;3.458;2022-11-20T07:55:15;29.45;;;16.00;;
21833;SDS011;11079;51.092;3.458;2022-11-20T07:57:41;32.88;;;16.67;;
21833;SDS011;11079;51.092;3.458;2022-11-20T08:00:07;32.22;;;17.90;;
21833;SDS011;11079;51.092;3.458;2022-11-20T08:02:36;32.40;;;16.67;;
21833;SDS011;11079;51.092;3.458;2022-11-20T08:05:03;33.80;;;18.20;;
21833;SDS011;11079;51.092;3.458;2022-11-20T08:07:34;34.30;;;18.05;;
21833;SDS011;11079;51.092;3.458;2022-11-20T08:10:03;33.30;;;17.35;;
21833;SDS011;11079;51.092;3.458;2022-11-20T08:12:29;36.40;;;17.63;;
21833;SDS011;11079;51.092;3.458;2022-11-20T08:15:14;32.72;;;18.83;;
21833;SDS011;11079;51.092;3.458;2022-11-20T08:17:39;38.85;;;19.85;;
21833;SDS011;11079;51.092;3.458;2022-11-20T08:20:05;33.63;;;18.60;;
21833;SDS011;11079;51.092;3.458;2022-11-20T08:22:31;37.80;;;19.10;;
21833;SDS011;11079;51.092;3.458;2022-11-20T08:24:56;36.25;;;19.27;;
21833;SDS011;11079;51.092;3.458;2022-11-20T08:27:22;35.95;;;19.42;;
21833;SDS011;11079;51.092;3.458;2022-11-20T08:29:48;35.40;;;18.80;;
21833;SDS011;11079;51.092;3.458;2022-11-20T08:32:13;38.97;;;19.83;;
21833;SDS011;11079;51.092;3.458;2022-11-20T08:34:39;32.40;;;18.45;;
21833;SDS011;11079;51.092;3.458;2022-11-20T08:37:05;34.70;;;18.05;;
21833;SDS011;11079;51.092;3.458;2022-11-20T08:39:30;38.55;;;19.55;;
21833;SDS011;11079;51.092;3.458;2022-11-20T08:41:56;31.88;;;17.55;;
21833;SDS011;11079;51.092;3.458;2022-11-20T08:44:21;33.35;;;18.02;;
21833;SDS011;11079;51.092;3.458;2022-11-20T08:46:47;31.23;;;17.25;;
21833;SDS011;11079;51.092;3.458;2022-11-20T08:49:13;37.17;;;18.08;;
21833;SDS011;11079;51.092;3.458;2022-11-20T08:51:39;29.83;;;17.65;;
21833;SDS011;11079;51.092;3.458;2022-11-20T08:54:06;32.08;;;16.50;;
21833;SDS011;11079;51.092;3.458;2022-11-20T08:56:32;29.73;;;15.52;;
21833;SDS011;11079;51.092;3.458;2022-11-20T08:58:58;29.15;;;16.20;;
21833;SDS011;11079;51.092;3.458;2022-11-20T09:01:26;31.13;;;16.67;;
21833;SDS011;11079;51.092;3.458;2022-11-20T09:03:57;28.30;;;16.48;;
21833;SDS011;11079;51.092;3.458;2022-11-20T09:06:24;26.52;;;16.38;;
21833;SDS011;11079;51.092;3.458;2022-11-20T09:08:53;27.92;;;15.52;;
21833;SDS011;11079;51.092;3.458;2022-11-20T09:11:19;31.05;;;15.98;;
21833;SDS011;11079;51.092;3.458;2022-11-20T09:13:45;29.83;;;16.73;;
21833;SDS011;11079;51.092;3.458;2022-11-20T09:16:11;30.88;;;15.32;;
21833;SDS011;11079;51.092;3.458;2022-11-20T09:18:36;28.52;;;16.35;;
21833;SDS011;11079;51.092;3.458;2022-11-20T09:21:03;29.23;;;16.65;;
21833;SDS011;11079;51.092;3.458;2022-11-20T09:23:31;29.95;;;15.73;;
21833;SDS011;11079;51.092;3.458;2022-11-20T09:26:01;25.95;;;15.43;;
21833;SDS011;11079;51.092;3.458;2022-11-20T09:28:30;25.50;;;14.32;;
21833;SDS011;11079;51.092;3.458;2022-11-20T09:30:56;26.35;;;14.45;;
21833;SDS011;11079;51.092;3.458;2022-11-20T09:33:22;23.60;;;13.38;;
21833;SDS011;11079;51.092;3.458;2022-11-20T09:35:48;23.42;;;14.35;;
21833;SDS011;11079;51.092;3.458;2022-11-20T09:38:13;26.50;;;14.13;;
21833;SDS011;11079;51.092;3.458;2022-11-20T09:40:47;23.67;;;13.15;;
21833;SDS011;11079;51.092;3.458;2022-11-20T09:43:46;20.13;;;12.40;;
21833;SDS011;11079;51.092;3.458;2022-11-20T09:46:20;23.02;;;13.60;;
21833;SDS011;11079;51.092;3.458;2022-11-20T09:54:19;23.90;;;12.95;;
21833;SDS011;11079;51.092;3.458;2022-11-20T09:56:48;20.27;;;12.43;;
21833;SDS011;11079;51.092;3.458;2022-11-20T10:04:51;18.70;;;11.38;;
21833;SDS011;11079;51.092;3.458;2022-11-20T10:07:42;21.65;;;11.50;;
21833;SDS011;11079;51.092;3.458;2022-11-20T10:10:16;20.67;;;11.32;;
21833;SDS011;11079;51.092;3.458;2022-11-20T10:15:54;64.93;;;23.23;;
21833;SDS011;11079;51.092;3.458;2022-11-20T10:21:30;43.55;;;18.23;;
21833;SDS011;11079;51.092;3.458;2022-11-20T10:24:14;44.20;;;18.80;;
21833;SDS011;11079;51.092;3.458;2022-11-20T10:29:39;36.70;;;15.82;;
21833;SDS011;11079;51.092;3.458;2022-11-20T10:32:16;42.17;;;17.35;;
21833;SDS011;11079;51.092;3.458;2022-11-20T10:35:01;40.28;;;16.70;;
21833;SDS011;11079;51.092;3.458;2022-11-20T10:37:33;38.15;;;15.88;;
21833;SDS011;11079;51.092;3.458;2022-11-20T10:40:14;33.83;;;15.27;;
21833;SDS011;11079;51.092;3.458;2022-11-20T10:42:49;32.78;;;15.95;;
21833;SDS011;11079;51.092;3.458;2022-11-20T10:47:52;31.30;;;15.75;;
21833;SDS011;11079;51.092;3.458;2022-11-20T10:50:21;32.95;;;15.40;;
21833;SDS011;11079;51.092;3.458;2022-11-20T10:55:30;29.02;;;13.90;;
21833;SDS011;11079;51.092;3.458;2022-11-20T10:58:16;30.05;;;14.10;;
21833;SDS011;11079;51.092;3.458;2022-11-20T11:00:50;26.60;;;12.98;;
21833;SDS011;11079;51.092;3.458;2022-11-20T11:03:28;25.25;;;12.63;;
21833;SDS011;11079;51.092;3.458;2022-11-20T11:06:03;29.55;;;13.82;;
21833;SDS011;11079;51.092;3.458;2022-11-20T11:08:36;27.15;;;13.40;;
21833;SDS011;11079;51.092;3.458;2022-11-20T11:13:48;27.77;;;13.48;;
21833;SDS011;11079;51.092;3.458;2022-11-20T11:16:33;26.13;;;13.45;;
21833;SDS011;11079;51.092;3.458;2022-11-20T11:19:06;25.73;;;12.75;;
21833;SDS011;11079;51.092;3.458;2022-11-20T11:21:36;26.85;;;13.00;;
21833;SDS011;11079;51.092;3.458;2022-11-20T11:24:14;25.42;;;13.20;;
21833;SDS011;11079;51.092;3.458;2022-11-20T11:29:35;25.00;;;12.38;;
21833;SDS011;11079;51.092;3.458;2022-11-20T11:32:05;24.05;;;12.40;;
21833;SDS011;11079;51.092;3.458;2022-11-20T11:34:33;22.38;;;11.48;;
21833;SDS011;11079;51.092;3.458;2022-11-20T11:36:59;30.13;;;13.43;;
21833;SDS011;11079;51.092;3.458;2022-11-20T11:39:28;21.05;;;11.70;;
21833;SDS011;11079;51.092;3.458;2022-11-20T11:41:55;25.55;;;12.80;;
21833;SDS011;11079;51.092;3.458;2022-11-20T11:44:27;20.77;;;12.05;;
21833;SDS011;11079;51.092;3.458;2022-11-20T11:55:13;19.15;;;10.43;;
21833;SDS011;11079;51.092;3.458;2022-11-20T12:00:39;21.50;;;10.35;;
21833;SDS011;11079;51.092;3.458;2022-11-20T12:03:19;19.20;;;10.35;;
21833;SDS011;11079;51.092;3.458;2022-11-20T12:05:57;23.02;;;11.18;;
21833;SDS011;11079;51.092;3.458;2022-11-20T12:08:31;19.52;;;10.63;;
21833;SDS011;11079;51.092;3.458;2022-11-20T12:11:13;21.45;;;10.68;;
21833;SDS011;11079;51.092;3.458;2022-11-20T12:14:30;16.27;;;10.07;;
21833;SDS011;11079;51.092;3.458;2022-11-20T12:17:01;19.95;;;10.55;;
21833;SDS011;11079;51.092;3.458;2022-11-20T12:19:29;17.77;;;10.00;;
21833;SDS011;11079;51.092;3.458;2022-11-20T12:25:02;18.83;;;9.90;;
21833;SDS011;11079;51.092;3.458;2022-11-20T12:30:15;18.60;;;9.88;;
21833;SDS011;11079;51.092;3.458;2022-11-20T12:43:41;18.52;;;8.55;;
21833;SDS011;11079;51.092;3.458;2022-11-20T12:46:39;17.77;;;9.27;;
21833;SDS011;11079;51.092;3.458;2022-11-20T12:49:26;13.50;;;9.05;;
21833;SDS011;11079;51.092;3.458;2022-11-20T12:58:25;15.60;;;8.75;;
21833;SDS011;11079;51.092;3.458;2022-11-20T13:01:01;12.98;;;8.43;;
21833;SDS011;11079;51.092;3.458;2022-11-20T13:03:57;13.80;;;8.38;;
21833;SDS011;11079;51.092;3.458;2022-11-20T13:06:32;18.55;;;8.43;;
21833;SDS011;11079;51.092;3.458;2022-11-20T13:08:59;16.25;;;8.50;;
21833;SDS011;11079;51.092;3.458;2022-11-20T13:11:47;13.32;;;8.40;;
21833;SDS011;11079;51.092;3.458;2022-11-20T13:16:59;16.25;;;7.97;;
21833;SDS011;11079;51.092;3.458;2022-11-20T13:19:29;18.17;;;8.98;;
21833;SDS011;11079;51.092;3.458;2022-11-20T13:21:55;13.23;;;7.53;;
21833;SDS011;11079;51.092;3.458;2022-11-20T13:29:26;14.57;;;7.88;;
21833;SDS011;11079;51.092;3.458;2022-11-20T13:32:00;11.98;;;7.35;;
21833;SDS011;11079;51.092;3.458;2022-11-20T13:34:54;13.95;;;7.32;;
21833;SDS011;11079;51.092;3.458;2022-11-20T13:37:28;15.65;;;8.30;;
21833;SDS011;11079;51.092;3.458;2022-11-20T13:40:21;12.27;;;6.93;;
21833;SDS011;11079;51.092;3.458;2022-11-20T13:43:33;11.63;;;7.70;;
21833;SDS011;11079;51.092;3.458;2022-11-20T13:45:39;13.60;;;7.25;;
21833;SDS011;11079;51.092;3.458;2022-11-20T13:48:16;11.30;;;6.53;;
21833;SDS011;11079;51.092;3.458;2022-11-20T13:56:43;11.27;;;7.13;;
21833;SDS011;11079;51.092;3.458;2022-11-20T14:02:15;11.70;;;7.05;;
21833;SDS011;11079;51.092;3.458;2022-11-20T14:04:43;12.70;;;6.88;;
21833;SDS011;11079;51.092;3.458;2022-11-20T14:07:14;12.68;;;6.53;;
21833;SDS011;11079;51.092;3.458;2022-11-20T14:09:52;11.45;;;7.10;;
21833;SDS011;11079;51.092;3.458;2022-11-20T14:12:21;12.93;;;7.25;;
21833;SDS011;11079;51.092;3.458;2022-11-20T14:14:49;11.68;;;6.78;;
21833;SDS011;11079;51.092;3.458;2022-11-20T14:19:47;11.13;;;6.60;;
21833;SDS011;11079;51.092;3.458;2022-11-20T14:22:19;11.65;;;6.43;;
21833;SDS011;11079;51.092;3.458;2022-11-20T14:24:46;10.73;;;6.68;;
21833;SDS011;11079;51.092;3.458;2022-11-20T14:27:16;12.38;;;6.40;;
21833;SDS011;11079;51.092;3.458;2022-11-20T14:29:45;12.20;;;6.40;;
21833;SDS011;11079;51.092;3.458;2022-11-20T14:32:20;15.63;;;6.20;;
21833;SDS011;11079;51.092;3.458;2022-11-20T14:34:49;10.70;;;5.68;;
21833;SDS011;11079;51.092;3.458;2022-11-20T14:37:23;11.30;;;6.30;;
21833;SDS011;11079;51.092;3.458;2022-11-20T14:39:52;10.05;;;5.82;;
21833;SDS011;11079;51.092;3.458;2022-11-20T14:42:23;11.32;;;6.13;;
21833;SDS011;11079;51.092;3.458;2022-11-20T14:44:52;11.43;;;6.47;;
21833;SDS011;11079;51.092;3.458;2022-11-20T14:47:22;11.32;;;6.35;;
21833;SDS011;11079;51.092;3.458;2022-11-20T14:49:54;15.15;;;7.43;;
21833;SDS011;11079;51.092;3.458;2022-11-20T14:52:21;9.15;;;5.43;;
21833;SDS011;11079;51.092;3.458;2022-11-20T14:54:49;10.07;;;5.57;;
21833;SDS011;11079;51.092;3.458;2022-11-20T14:57:21;12.32;;;6.15;;
21833;SDS011;11079;51.092;3.458;2022-11-20T14:59:51;10.45;;;6.55;;
21833;SDS011;11079;51.092;3.458;2022-11-20T15:02:28;8.88;;;5.57;;
21833;SDS011;11079;51.092;3.458;2022-11-20T15:04:57;10.65;;;5.50;;
21833;SDS011;11079;51.092;3.458;2022-11-20T15:07:25;9.68;;;5.82;;
21833;SDS011;11079;51.092;3.458;2022-11-20T15:12:38;9.70;;;5.50;;
21833;SDS011;11079;51.092;3.458;2022-11-20T15:18:13;10.35;;;5.57;;
21833;SDS011;11079;51.092;3.458;2022-11-20T15:20:43;8.50;;;5.18;;
21833;SDS011;11079;51.092;3.458;2022-11-20T15:23:13;10.77;;;5.35;;
21833;SDS011;11079;51.092;3.458;2022-11-20T15:25:40;11.85;;;4.82;;
21833;SDS011;11079;51.092;3.458;2022-11-20T15:28:13;8.27;;;4.88;;
21833;SDS011;11079;51.092;3.458;2022-11-20T15:30:58;9.35;;;5.25;;
21833;SDS011;11079;51.092;3.458;2022-11-20T15:33:27;9.80;;;5.03;;
21833;SDS011;11079;51.092;3.458;2022-11-20T15:35:53;9.40;;;5.05;;
21833;SDS011;11079;51.092;3.458;2022-11-20T15:38:19;8.20;;;4.90;;
21833;SDS011;11079;51.092;3.458;2022-11-20T15:40:44;8.18;;;4.95;;
21833;SDS011;11079;51.092;3.458;2022-11-20T15:43:10;8.55;;;4.50;;
21833;SDS011;11079;51.092;3.458;2022-11-20T15:45:53;9.60;;;4.72;;
21833;SDS011;11079;51.092;3.458;2022-11-20T15:48:36;8.27;;;4.50;;
21833;SDS011;11079;51.092;3.458;2022-11-20T15:53:39;9.82;;;4.72;;
21833;SDS011;11079;51.092;3.458;2022-11-20T15:56:08;7.82;;;4.55;;
21833;SDS011;11079;51.092;3.458;2022-11-20T15:58:37;7.03;;;4.65;;
21833;SDS011;11079;51.092;3.458;2022-11-20T16:01:03;8.23;;;4.80;;
21833;SDS011;11079;51.092;3.458;2022-11-20T16:03:29;7.45;;;4.95;;
21833;SDS011;11079;51.092;3.458;2022-11-20T16:05:55;6.38;;;4.30;;
21833;SDS011;11079;51.092;3.458;2022-11-20T16:08:21;7.78;;;4.70;;
21833;SDS011;11079;51.092;3.458;2022-11-20T16:10:46;8.10;;;4.28;;
21833;SDS011;11079;51.092;3.458;2022-11-20T16:13:17;6.57;;;4.63;;
21833;SDS011;11079;51.092;3.458;2022-11-20T16:16:03;7.13;;;4.13;;
21833;SDS011;11079;51.092;3.458;2022-11-20T16:18:39;9.05;;;4.53;;
21833;SDS011;11079;51.092;3.458;2022-11-20T16:21:10;6.80;;;4.15;;
21833;SDS011;11079;51.092;3.458;2022-11-20T16:23:39;6.75;;;4.50;;
21833;SDS011;11079;51.092;3.458;2022-11-20T16:26:11;7.45;;;4.03;;
21833;SDS011;11079;51.092;3.458;2022-11-20T16:28:38;6.75;;;4.22;;